createdAt,value
2018-02-16T00:01:42.362Z,8.40
2018-02-16T00:04:11.643Z,8.10
2018-02-16T00:06:40.928Z,7.53
2018-02-16T00:12:32.624Z,7.20
2018-02-16T00:19:44.780Z,6.10
2018-02-16T00:22:14.825Z,6.13
2018-02-16T00:24:43.687Z,5.73
2018-02-16T00:27:12.809Z,6.10
2018-02-16T00:29:41.739Z,5.90
2018-02-16T00:32:10.884Z,5.47
2018-02-16T00:34:39.723Z,5.40
2018-02-16T00:37:08.871Z,5.67
2018-02-16T00:39:37.760Z,5.47
2018-02-16T00:42:06.721Z,5.90
2018-02-16T00:44:35.780Z,5.07
2018-02-16T00:47:04.897Z,5.13
2018-02-16T00:53:09.479Z,5.03
2018-02-16T00:56:14.672Z,4.90
2018-02-16T00:59:09.355Z,5.20
2018-02-16T01:01:38.456Z,5.10
2018-02-16T01:04:07.449Z,5.70
2018-02-16T01:07:04.438Z,6.70
2018-02-16T01:09:33.904Z,7.25
2018-02-16T01:14:32.213Z,6.40
2018-02-16T01:17:01.406Z,6.40
2018-02-16T01:19:30.888Z,6.30
2018-02-16T01:21:59.901Z,5.97
2018-02-16T01:26:57.486Z,5.17
2018-02-16T01:29:27.408Z,4.83
2018-02-16T01:31:56.756Z,5.33
2018-02-16T01:36:08.412Z,5.37
2018-02-16T01:39:17.438Z,5.20
2018-02-16T01:41:46.920Z,4.57
2018-02-16T01:46:45.334Z,4.90
2018-02-16T01:49:14.659Z,5.40
2018-02-16T01:58:48.456Z,4.77
2018-02-16T02:01:18.380Z,4.20
2018-02-16T02:03:48.225Z,4.63
2018-02-16T02:06:18.387Z,4.10
2018-02-16T02:08:47.797Z,4.50
2018-02-16T02:11:17.510Z,4.63
2018-02-16T02:13:46.822Z,4.40
2018-02-16T02:16:16.444Z,4.60
2018-02-16T02:18:46.454Z,4.83
2018-02-16T02:21:16.208Z,4.20
2018-02-16T02:23:45.930Z,4.50
2018-02-16T02:28:43.880Z,4.67
2018-02-16T02:31:13.642Z,4.23
2018-02-16T02:33:43.393Z,4.30
2018-02-16T02:36:13.212Z,3.70
2018-02-16T02:38:42.563Z,4.00
2018-02-16T02:41:12.227Z,4.23
2018-02-16T02:43:41.915Z,4.03
2018-02-16T02:48:39.843Z,3.70
2018-02-16T02:51:08.817Z,3.57
2018-02-16T02:53:38.227Z,4.00
2018-02-16T02:56:07.856Z,4.10
2018-02-16T02:58:37.426Z,4.07
2018-02-16T03:01:07.437Z,3.67
2018-02-16T03:03:36.732Z,3.83
2018-02-16T03:06:05.755Z,3.30
2018-02-16T03:08:39.907Z,3.77
2018-02-16T03:13:38.752Z,3.30
2018-02-16T03:16:08.444Z,3.47
2018-02-16T03:18:38.210Z,3.73
2018-02-16T03:21:08.218Z,3.23
2018-02-16T03:23:37.728Z,3.50
2018-02-16T03:26:07.244Z,3.00
2018-02-16T03:28:36.892Z,3.10
2018-02-16T03:31:06.353Z,3.30
2018-02-16T03:33:35.683Z,3.33
2018-02-16T03:36:05.190Z,3.03
2018-02-16T03:38:34.945Z,3.33
2018-02-16T03:43:33.616Z,3.37
2018-02-16T03:46:03.216Z,3.50
2018-02-16T03:48:32.616Z,3.17
2018-02-16T03:51:02.209Z,3.50
2018-02-16T03:53:31.462Z,3.10
2018-02-16T03:56:01.190Z,3.17
2018-02-16T03:58:30.591Z,3.47
2018-02-16T04:04:54.915Z,3.13
2018-02-16T04:09:52.886Z,3.40
2018-02-16T04:12:22.582Z,2.87
2018-02-16T04:17:27.883Z,3.27
2018-02-16T04:22:58.405Z,2.95
2018-02-16T04:25:28.040Z,2.77
2018-02-16T04:33:29.034Z,2.77
2018-02-16T04:38:27.387Z,3.10
2018-02-16T04:40:56.965Z,2.53
2018-02-16T04:45:55.376Z,2.50
2018-02-16T04:48:25.419Z,2.47
2018-02-16T04:50:55.233Z,2.63
2018-02-16T04:54:09.390Z,3.03
2018-02-16T04:56:38.809Z,2.83
2018-02-16T04:59:08.021Z,2.30
2018-02-16T05:09:27.615Z,2.90
2018-02-16T05:14:29.568Z,2.10
2018-02-16T05:16:58.911Z,2.60
2018-02-16T05:21:33.682Z,2.53
2018-02-16T05:24:02.790Z,3.00
2018-02-16T05:26:32.415Z,2.20
2018-02-16T05:29:01.901Z,2.43
2018-02-16T05:38:15.687Z,2.50
2018-02-16T05:40:44.927Z,2.70
2018-02-16T05:45:43.423Z,2.37
2018-02-16T05:48:12.896Z,2.50
2018-02-16T05:50:42.359Z,2.13
2018-02-16T05:53:12.025Z,2.57
2018-02-16T06:02:10.345Z,2.20
2018-02-16T06:04:39.606Z,2.10
2018-02-16T06:07:09.200Z,2.43
2018-02-16T06:09:39.396Z,2.10
2018-02-16T06:12:08.681Z,2.03
2018-02-16T06:19:53.396Z,2.20
2018-02-16T06:22:22.871Z,2.30
2018-02-16T06:24:51.904Z,2.03
2018-02-16T06:27:21.323Z,2.00
2018-02-16T06:29:50.534Z,2.10
2018-02-16T06:32:20.378Z,2.20
2018-02-16T06:34:49.954Z,2.10
2018-02-16T06:42:31.438Z,2.03
2018-02-16T06:45:01.511Z,2.40
2018-02-16T06:47:31.191Z,2.30
2018-02-16T06:50:01.177Z,2.00
2018-02-16T06:52:30.689Z,2.10
2018-02-16T06:55:00.228Z,2.57
2018-02-16T06:57:30.480Z,2.13
2018-02-16T07:00:00.211Z,2.10
2018-02-16T07:02:29.546Z,2.33
2018-02-16T07:04:59.451Z,1.93
2018-02-16T07:07:28.822Z,1.93
2018-02-16T07:09:58.322Z,1.80
2018-02-16T07:12:27.899Z,2.10
2018-02-16T07:20:13.930Z,2.10
2018-02-16T07:25:23.921Z,1.93
2018-02-16T07:30:21.918Z,1.83
2018-02-16T07:33:14.754Z,2.20
2018-02-16T07:35:43.932Z,2.10
2018-02-16T07:44:59.799Z,2.57
2018-02-16T07:47:29.240Z,5.13
2018-02-16T07:49:58.780Z,4.83
2018-02-16T07:52:27.944Z,4.90
2018-02-16T07:57:25.738Z,4.40
2018-02-16T07:59:54.822Z,4.87
2018-02-16T08:04:42.697Z,4.30
2018-02-16T08:07:11.884Z,3.83
2018-02-16T08:09:41.052Z,3.50
2018-02-16T08:14:38.891Z,3.20
2018-02-16T08:17:07.903Z,2.60
2018-02-16T08:19:37.252Z,2.70
2018-02-16T08:22:06.861Z,2.47
2018-02-16T08:24:35.872Z,2.80
2018-02-16T08:27:05.448Z,2.73
2018-02-16T08:29:34.819Z,3.00
2018-02-16T08:32:04.200Z,2.83
2018-02-16T08:34:33.788Z,2.93
2018-02-16T08:37:02.952Z,2.70
2018-02-16T08:40:11.474Z,2.70
2018-02-16T08:42:40.786Z,2.70
2018-02-16T08:45:10.476Z,2.53
2018-02-16T08:47:39.917Z,2.50
2018-02-16T08:52:37.896Z,2.43
2018-02-16T08:55:07.508Z,2.40
2018-02-16T08:57:36.616Z,5.73
2018-02-16T09:00:06.557Z,6.20
2018-02-16T09:02:35.892Z,6.00
2018-02-16T09:05:04.814Z,5.47
2018-02-16T09:07:34.386Z,5.87
2018-02-16T09:10:03.824Z,5.23
2018-02-16T09:12:33.443Z,4.53
2018-02-16T09:15:02.800Z,5.00
2018-02-16T09:17:31.749Z,4.10
2018-02-16T09:20:00.946Z,4.30
2018-02-16T09:29:59.628Z,3.07
2018-02-16T09:32:28.891Z,3.67
2018-02-16T09:34:58.327Z,3.90
2018-02-16T09:37:29.559Z,3.50
2018-02-16T09:39:59.620Z,4.93
2018-02-16T09:42:28.740Z,5.87
2018-02-16T09:44:57.775Z,6.40
2018-02-16T09:47:27.351Z,6.37
2018-02-16T09:49:57.191Z,6.27
2018-02-16T09:52:27.202Z,5.63
2018-02-16T09:59:50.390Z,4.47
2018-02-16T10:02:19.714Z,4.47
2018-02-16T10:04:48.768Z,4.20
2018-02-16T10:09:47.208Z,4.90
2018-02-16T10:12:16.692Z,4.00
2018-02-16T10:14:46.247Z,4.60
2018-02-16T10:17:15.752Z,3.73
2018-02-16T10:19:44.747Z,6.07
2018-02-16T10:22:14.347Z,8.70
2018-02-16T10:27:12.418Z,8.30
2018-02-16T10:29:42.192Z,8.23
2018-02-16T10:32:12.195Z,9.03
2018-02-16T10:34:41.776Z,7.77
2018-02-16T10:37:10.898Z,7.37
2018-02-16T10:42:08.830Z,7.43
2018-02-16T10:44:38.430Z,7.27
2018-02-16T10:47:07.877Z,6.90
2018-02-16T10:53:04.867Z,5.93
2018-02-16T10:55:34.361Z,6.43
2018-02-16T10:58:03.905Z,6.13
2018-02-16T11:10:13.196Z,4.80
2018-02-16T11:12:42.667Z,5.87
2018-02-16T11:15:12.436Z,5.43
2018-02-16T11:19:17.224Z,5.60
2018-02-16T11:21:46.916Z,5.20
2018-02-16T11:25:41.182Z,5.30
2018-02-16T11:28:10.844Z,5.10
2018-02-16T11:30:40.543Z,4.63
2018-02-16T11:33:10.417Z,5.37
2018-02-16T11:37:12.799Z,5.13
2018-02-16T11:39:42.021Z,4.97
2018-02-16T11:42:11.932Z,4.95
2018-02-16T11:47:09.905Z,5.03
2018-02-16T11:52:08.176Z,5.73
2018-02-16T11:54:37.893Z,6.60
2018-02-16T11:57:07.463Z,5.87
2018-02-16T11:59:37.220Z,6.50
2018-02-16T12:02:06.939Z,6.50
2018-02-16T12:08:36.812Z,7.63
2018-02-16T12:12:55.262Z,7.50
2018-02-16T12:15:25.867Z,7.33
2018-02-16T12:17:55.203Z,7.87
2018-02-16T12:26:21.456Z,14.67
2018-02-16T12:28:51.464Z,14.30
2018-02-16T12:31:21.488Z,13.53
2018-02-16T12:33:51.492Z,12.13
2018-02-16T12:36:21.200Z,10.67
2018-02-16T12:42:11.430Z,11.37
2018-02-16T12:44:41.224Z,11.37
2018-02-16T12:47:11.172Z,12.03
2018-02-16T12:49:40.641Z,10.13
2018-02-16T12:52:10.233Z,9.73
2018-02-16T12:54:40.185Z,9.67
2018-02-16T12:57:10.192Z,8.77
2018-02-16T12:59:39.674Z,8.43
2018-02-16T13:02:09.201Z,8.77
2018-02-16T13:04:38.782Z,8.60
2018-02-16T13:07:07.866Z,8.83
2018-02-16T13:09:37.476Z,8.20
2018-02-16T13:12:07.201Z,7.80
2018-02-16T13:14:36.910Z,7.87
2018-02-16T13:19:35.332Z,8.00
2018-02-16T13:22:04.754Z,7.70
2018-02-16T13:24:34.252Z,7.03
2018-02-16T13:27:04.170Z,7.50
2018-02-16T13:34:30.812Z,6.10
2018-02-16T13:36:59.877Z,6.33
2018-02-16T13:39:29.573Z,6.53
2018-02-16T13:41:58.775Z,6.73
2018-02-16T13:44:28.393Z,6.17
2018-02-16T13:46:57.916Z,6.53
2018-02-16T13:51:56.353Z,6.63
2018-02-16T13:54:25.740Z,6.47
2018-02-16T13:56:54.902Z,6.27
2018-02-16T14:01:52.739Z,5.87
2018-02-16T14:04:22.589Z,6.77
2018-02-16T14:06:51.773Z,5.90
2018-02-16T14:09:20.899Z,6.27
2018-02-16T14:14:18.731Z,6.17
2018-02-16T14:16:47.791Z,5.73
2018-02-16T14:19:16.740Z,6.27
2018-02-16T14:21:46.180Z,6.87
2018-02-16T14:24:15.986Z,6.40
2018-02-16T14:29:14.497Z,6.97
2018-02-16T14:31:43.796Z,6.53
2018-02-16T14:34:13.211Z,6.53
2018-02-16T14:36:42.772Z,6.50
2018-02-16T14:39:11.927Z,6.80
2018-02-16T14:44:10.238Z,6.33
2018-02-16T14:46:39.744Z,5.97
2018-02-16T14:49:09.330Z,6.27
2018-02-16T14:51:38.648Z,6.10
2018-02-16T14:54:08.013Z,5.87
2018-02-16T14:56:37.452Z,7.35
2018-02-16T14:59:06.704Z,6.43
2018-02-16T15:01:35.780Z,7.40
2018-02-16T15:04:04.773Z,8.07
2018-02-16T15:06:33.769Z,8.83
2018-02-16T15:09:03.407Z,9.73
2018-02-16T15:12:44.728Z,8.67
2018-02-16T15:18:15.392Z,7.87
2018-02-16T15:20:45.380Z,8.03
2018-02-16T15:23:14.792Z,9.17
2018-02-16T15:27:08.775Z,8.83
2018-02-16T15:29:37.924Z,9.00
2018-02-16T15:34:36.376Z,9.33
2018-02-16T15:37:06.188Z,9.23
2018-02-16T15:39:35.897Z,14.77
2018-02-16T15:42:48.928Z,17.83
2018-02-16T15:47:47.431Z,16.27
2018-02-16T15:50:16.869Z,12.83
2018-02-16T15:52:45.937Z,13.60
2018-02-16T15:57:43.943Z,15.10
2018-02-16T16:02:41.985Z,15.00
2018-02-16T16:07:40.412Z,14.97
2018-02-16T16:10:09.679Z,12.90
2018-02-16T16:12:39.192Z,12.47
2018-02-16T16:15:08.784Z,12.50
2018-02-16T16:17:38.198Z,11.80
2018-02-16T16:20:07.790Z,11.30
2018-02-16T16:22:36.811Z,9.13
2018-02-16T16:25:05.884Z,9.33
2018-02-16T16:27:35.440Z,8.90
2018-02-16T16:30:05.212Z,9.10
2018-02-16T16:32:35.463Z,8.55
2018-02-16T16:35:05.200Z,10.73
2018-02-16T16:37:34.828Z,13.93
2018-02-16T16:40:04.335Z,13.00
2018-02-16T16:45:16.946Z,12.63
2018-02-16T16:50:14.900Z,11.77
2018-02-16T16:52:44.417Z,11.07
2018-02-16T16:55:13.737Z,10.27
2018-02-16T16:57:42.976Z,10.27
2018-02-16T17:02:41.226Z,8.30
2018-02-16T17:05:10.656Z,9.00
2018-02-16T17:07:40.239Z,9.80
2018-02-16T17:10:09.825Z,8.93
2018-02-16T17:12:38.893Z,9.03
2018-02-16T17:15:07.911Z,10.80
2018-02-16T17:20:05.679Z,12.27
2018-02-16T17:22:34.937Z,10.40
2018-02-16T17:27:33.207Z,11.57
2018-02-16T17:30:02.757Z,10.70
2018-02-16T17:32:31.884Z,10.70
2018-02-16T17:35:01.044Z,12.17
2018-02-16T17:40:00.220Z,13.63
2018-02-16T17:42:29.833Z,13.47
2018-02-16T17:44:58.900Z,14.10
2018-02-16T17:47:28.468Z,14.40
2018-02-16T17:49:57.815Z,15.20
2018-02-16T17:52:27.182Z,15.03
2018-02-16T17:54:56.899Z,15.23
2018-02-16T17:57:26.648Z,16.33
2018-02-16T17:59:56.235Z,16.03
2018-02-16T18:02:26.080Z,15.60
2018-02-16T18:07:23.828Z,16.63
2018-02-16T18:09:52.798Z,16.27
2018-02-16T18:12:22.429Z,16.57
2018-02-16T18:14:51.913Z,17.77
2018-02-16T18:19:49.790Z,17.97
2018-02-16T18:22:18.924Z,18.13
2018-02-16T18:25:48.181Z,19.27
2018-02-16T18:30:51.248Z,20.13
2018-02-16T18:38:46.381Z,19.07
2018-02-16T18:41:16.205Z,18.33
2018-02-16T18:51:12.351Z,16.73
2018-02-16T18:53:41.702Z,15.83
2018-02-16T18:56:10.887Z,16.57
2018-02-16T19:10:20.916Z,14.30
2018-02-16T19:15:18.781Z,16.33
2018-02-16T19:17:48.203Z,16.60
2018-02-16T19:20:17.454Z,15.40
2018-02-16T19:22:46.742Z,16.00
2018-02-16T19:25:15.787Z,14.40
2018-02-16T19:27:44.929Z,15.23
2018-02-16T19:32:42.812Z,13.90
2018-02-16T19:35:11.887Z,13.77
2018-02-16T19:40:09.690Z,13.27
2018-02-16T19:42:39.218Z,13.30
2018-02-16T19:45:08.581Z,13.50
2018-02-16T19:47:37.810Z,12.70
2018-02-16T19:50:06.804Z,12.50
2018-02-16T19:52:35.922Z,11.93
2018-02-16T19:55:24.931Z,11.53
2018-02-16T20:00:23.321Z,11.70
2018-02-16T20:07:30.814Z,12.70
2018-02-16T20:09:59.832Z,11.73
2018-02-16T20:12:29.433Z,11.80
2018-02-16T20:14:59.192Z,12.50
2018-02-16T20:17:28.395Z,13.00
2018-02-16T20:19:58.229Z,13.80
2018-02-16T20:22:27.871Z,14.20
2018-02-16T20:24:56.903Z,11.87
2018-02-16T20:29:54.886Z,11.83
2018-02-16T20:32:24.208Z,11.33
2018-02-16T20:34:53.807Z,11.70
2018-02-16T20:40:10.873Z,10.40
2018-02-16T20:42:40.396Z,11.40
2018-02-16T20:46:32.928Z,11.43
2018-02-16T20:53:04.893Z,10.20
2018-02-16T20:55:34.343Z,10.23
2018-02-16T20:58:03.888Z,10.10
2018-02-16T21:00:32.935Z,10.00
2018-02-16T21:05:31.424Z,10.20
2018-02-16T21:09:45.801Z,9.53
2018-02-16T21:12:14.924Z,9.33
2018-02-16T21:17:12.695Z,9.07
2018-02-16T21:19:42.026Z,9.13
2018-02-16T21:24:07.872Z,10.10
2018-02-16T21:26:37.238Z,8.83
2018-02-16T21:29:06.905Z,9.00
2018-02-16T21:38:10.252Z,8.77
2018-02-16T21:40:40.208Z,8.67
2018-02-16T21:46:44.055Z,8.70
2018-02-16T21:51:42.178Z,10.47
2018-02-16T21:54:11.503Z,9.63
2018-02-16T22:01:54.206Z,9.60
2018-02-16T22:04:23.554Z,9.20
2018-02-16T22:06:53.340Z,9.87
2018-02-16T22:09:22.551Z,8.55
2018-02-16T22:11:51.910Z,8.80
2018-02-16T22:16:49.798Z,8.60
2018-02-16T22:19:18.992Z,8.63
2018-02-16T22:21:48.806Z,8.87
2018-02-16T22:24:18.339Z,8.80
2018-02-16T22:26:47.512Z,8.73
2018-02-16T22:29:16.801Z,8.67
2018-02-16T22:31:45.902Z,8.13
2018-02-16T22:36:43.731Z,8.80
2018-02-16T22:39:12.732Z,8.17
2018-02-16T22:41:41.697Z,7.17
2018-02-16T22:44:10.726Z,7.60
2018-02-16T22:46:39.732Z,7.47
2018-02-16T22:49:09.171Z,7.80
2018-02-16T22:54:07.224Z,8.10
2018-02-16T22:56:36.774Z,7.37
2018-02-16T22:59:06.235Z,7.90
2018-02-16T23:01:35.678Z,7.30
2018-02-16T23:04:04.875Z,7.90
2018-02-16T23:06:34.418Z,8.17
2018-02-16T23:09:03.924Z,7.63
2018-02-16T23:14:02.431Z,7.03
2018-02-16T23:16:31.917Z,6.63
2018-02-16T23:21:30.327Z,6.63
2018-02-16T23:23:59.917Z,6.40
2018-02-16T23:28:59.823Z,6.77
2018-02-16T23:31:29.345Z,6.50
2018-02-16T23:33:59.220Z,6.60
2018-02-16T23:36:28.644Z,6.70
2018-02-16T23:38:58.507Z,6.80
2018-02-16T23:41:28.194Z,6.57
2018-02-16T23:43:57.494Z,6.57
2018-02-16T23:46:26.822Z,6.07
2018-02-16T23:48:55.880Z,6.97
2018-02-16T23:53:53.653Z,6.55
2018-02-16T23:56:23.540Z,6.50
2018-02-16T23:58:53.208Z,6.63
